createdAt,value
2022-10-28T00:01:09.810Z,99.90
2022-10-28T00:03:42.028Z,99.90
2022-10-28T00:06:14.687Z,99.90
2022-10-28T00:08:41.593Z,99.90
2022-10-28T00:11:21.336Z,99.90
2022-10-28T00:13:48.904Z,99.90
2022-10-28T00:16:18.984Z,99.90
2022-10-28T00:18:46.473Z,99.90
2022-10-28T00:21:18.549Z,99.90
2022-10-28T00:23:45.832Z,99.90
2022-10-28T00:26:15.369Z,99.90
2022-10-28T00:28:51.060Z,99.90
2022-10-28T00:31:19.754Z,99.90
2022-10-28T00:33:46.815Z,99.90
2022-10-28T00:36:16.596Z,99.90
2022-10-28T00:38:45.129Z,99.90
2022-10-28T00:41:15.316Z,99.90
2022-10-28T00:43:43.408Z,99.90
2022-10-28T00:46:34.613Z,99.90
2022-10-28T00:49:07.161Z,99.90
2022-10-28T00:51:35.634Z,99.90
2022-10-28T00:54:04.779Z,99.90
2022-10-28T00:56:35.833Z,99.90
2022-10-28T00:59:07.338Z,99.90
2022-10-28T01:01:34.102Z,99.90
2022-10-28T01:04:01.360Z,99.90
2022-10-28T01:06:29.010Z,99.90
2022-10-28T01:08:59.082Z,99.90
2022-10-28T01:11:39.412Z,99.90
2022-10-28T01:14:24.956Z,99.90
2022-10-28T01:17:19.213Z,99.90
2022-10-28T01:20:13.053Z,99.90
2022-10-28T01:23:03.977Z,99.90
2022-10-28T01:25:55.296Z,99.90
2022-10-28T01:28:58.871Z,99.90
2022-10-28T01:31:53.460Z,99.90
2022-10-28T01:34:35.942Z,99.90
2022-10-28T01:37:17.306Z,99.90
2022-10-28T01:40:06.123Z,99.90
2022-10-28T01:42:44.389Z,99.90
2022-10-28T01:45:24.238Z,99.90
2022-10-28T01:47:58.524Z,99.90
2022-10-28T01:50:39.666Z,99.90
2022-10-28T01:53:21.112Z,99.90
2022-10-28T01:55:50.974Z,99.90
2022-10-28T01:58:21.436Z,99.90
2022-10-28T02:00:49.151Z,99.90
2022-10-28T02:03:17.123Z,99.90
2022-10-28T02:05:49.392Z,99.90
2022-10-28T02:08:18.802Z,99.90
2022-10-28T02:11:11.328Z,99.90
2022-10-28T02:13:44.222Z,99.90
2022-10-28T02:16:46.822Z,99.90
2022-10-28T02:19:42.149Z,99.90
2022-10-28T02:22:14.472Z,99.90
2022-10-28T02:25:10.017Z,99.90
2022-10-28T02:28:00.129Z,99.90
2022-10-28T02:30:41.594Z,99.90
2022-10-28T02:33:12.398Z,99.90
2022-10-28T02:35:45.172Z,99.90
2022-10-28T02:38:18.189Z,99.90
2022-10-28T02:43:24.818Z,99.90
2022-10-28T02:45:54.960Z,99.90
2022-10-28T02:48:52.913Z,99.90
2022-10-28T02:51:29.403Z,99.90
2022-10-28T02:54:18.149Z,99.90
2022-10-28T02:56:59.764Z,99.90
2022-10-28T02:59:26.421Z,99.90
2022-10-28T03:01:53.094Z,99.90
2022-10-28T03:04:19.775Z,99.90
2022-10-28T03:06:46.428Z,99.90
2022-10-28T03:09:13.066Z,99.90
2022-10-28T03:11:39.702Z,99.90
2022-10-28T03:14:06.311Z,99.90
2022-10-28T03:16:33.046Z,99.90
2022-10-28T03:18:59.980Z,99.90
2022-10-28T03:21:26.582Z,99.90
2022-10-28T03:23:53.253Z,99.90
2022-10-28T03:26:19.925Z,99.90
2022-10-28T03:28:46.741Z,99.90
2022-10-28T03:31:15.088Z,99.90
2022-10-28T03:33:41.677Z,99.90
2022-10-28T03:36:08.622Z,99.90
2022-10-28T03:38:35.210Z,99.90
2022-10-28T03:41:01.787Z,99.90
2022-10-28T03:43:28.364Z,99.90
2022-10-28T03:45:54.956Z,99.90
2022-10-28T03:48:22.643Z,99.90
2022-10-28T03:50:53.946Z,99.90
2022-10-28T03:53:21.274Z,99.90
2022-10-28T03:55:58.655Z,99.90
2022-10-28T03:58:25.882Z,99.90
2022-10-28T04:00:53.535Z,99.90
2022-10-28T04:03:21.639Z,99.90
2022-10-28T04:05:48.408Z,99.90
2022-10-28T04:08:16.089Z,99.90
2022-10-28T04:10:47.354Z,99.90
2022-10-28T04:13:15.702Z,99.90
2022-10-28T04:15:42.597Z,99.90
2022-10-28T04:18:09.589Z,99.90
2022-10-28T04:20:36.228Z,99.90
2022-10-28T04:23:03.296Z,99.90
2022-10-28T04:25:30.236Z,99.90
2022-10-28T04:27:57.015Z,99.90
2022-10-28T04:30:23.930Z,99.90
2022-10-28T04:32:50.551Z,99.90
2022-10-28T04:35:17.162Z,99.90
2022-10-28T04:37:43.713Z,99.90
2022-10-28T04:40:10.707Z,99.90
2022-10-28T04:42:37.333Z,99.90
2022-10-28T04:45:04.212Z,99.90
2022-10-28T04:47:30.796Z,99.90
2022-10-28T04:49:57.352Z,99.90
2022-10-28T04:52:24.032Z,99.90
2022-10-28T04:54:50.637Z,99.90
2022-10-28T04:57:17.206Z,99.90
2022-10-28T04:59:43.857Z,99.90
2022-10-28T05:02:10.581Z,99.90
2022-10-28T05:04:37.210Z,99.90
2022-10-28T05:07:03.769Z,99.90
2022-10-28T05:09:30.364Z,99.90
2022-10-28T05:11:56.949Z,99.90
2022-10-28T05:14:23.542Z,99.90
2022-10-28T05:16:50.110Z,99.90
2022-10-28T05:19:16.692Z,99.90
2022-10-28T05:21:43.243Z,99.90
2022-10-28T05:24:09.945Z,99.90
2022-10-28T05:26:36.559Z,99.90
2022-10-28T05:29:03.257Z,99.90
2022-10-28T05:31:29.834Z,99.90
2022-10-28T05:33:56.427Z,99.90
2022-10-28T06:00:53.871Z,99.90
2022-10-28T06:03:20.513Z,99.90
2022-10-28T06:05:47.226Z,99.90
2022-10-28T06:08:14.405Z,99.90
2022-10-28T06:10:41.702Z,99.90
2022-10-28T06:13:07.574Z,99.90
2022-10-28T06:15:34.256Z,99.90
2022-10-28T06:18:00.848Z,99.90
2022-10-28T06:20:27.518Z,99.90
2022-10-28T06:22:56.124Z,99.90
2022-10-28T06:25:24.495Z,99.90
2022-10-28T06:27:56.189Z,99.90
2022-10-28T06:30:24.784Z,99.90
2022-10-28T06:32:54.433Z,99.90
2022-10-28T06:35:20.990Z,99.90
2022-10-28T06:37:51.906Z,99.90
2022-10-28T06:40:18.724Z,99.90
2022-10-28T06:42:45.354Z,99.90
2022-10-28T06:45:12.105Z,99.90
2022-10-28T06:47:41.584Z,99.90
2022-10-28T06:50:08.720Z,99.90
2022-10-28T06:52:35.465Z,99.90
2022-10-28T06:55:02.184Z,99.90
2022-10-28T06:57:29.388Z,99.90
2022-10-28T06:59:56.126Z,99.90
2022-10-28T07:02:22.883Z,99.90
2022-10-28T07:04:49.540Z,99.90
2022-10-28T07:09:44.884Z,99.90
2022-10-28T13:45:53.695Z,99.90
2022-10-28T13:48:29.598Z,38.30
2022-10-28T13:51:11.268Z,39.00
2022-10-28T13:53:55.335Z,39.50
2022-10-28T13:56:27.699Z,39.60
2022-10-28T13:59:15.958Z,40.20
2022-10-28T14:02:01.904Z,40.30
2022-10-28T14:04:39.245Z,39.40
2022-10-28T14:07:12.529Z,40.70
2022-10-28T14:09:41.357Z,41.60
2022-10-28T14:12:26.991Z,42.00
2022-10-28T14:15:04.482Z,41.20
2022-10-28T14:17:43.825Z,41.20
2022-10-28T14:20:28.115Z,41.60
2022-10-28T14:22:55.227Z,51.10
2022-10-28T14:25:51.157Z,54.20
2022-10-28T14:28:29.705Z,59.30
2022-10-28T14:31:08.335Z,69.50
2022-10-28T14:33:41.189Z,73.80
2022-10-28T14:36:19.543Z,75.70
2022-10-28T14:39:04.327Z,78.00
2022-10-28T14:41:34.132Z,78.20
2022-10-28T14:44:24.929Z,77.70
2022-10-28T14:47:13.536Z,79.80
2022-10-28T14:49:41.729Z,83.10
2022-10-28T14:52:16.233Z,90.00
2022-10-28T14:54:49.971Z,92.60
2022-10-28T14:57:22.047Z,96.70
2022-10-28T14:59:51.235Z,99.90
2022-10-28T15:02:30.796Z,99.90
2022-10-28T15:05:12.477Z,99.90
2022-10-28T15:07:40.349Z,99.90
2022-10-28T15:10:22.828Z,99.90
2022-10-28T15:12:50.689Z,99.90
2022-10-28T15:15:22.652Z,99.90
2022-10-28T15:17:50.002Z,99.90
2022-10-28T15:20:22.465Z,99.90
2022-10-28T15:22:49.294Z,99.90
2022-10-28T15:25:21.456Z,99.90
2022-10-28T15:27:51.779Z,99.90
2022-10-28T15:30:24.473Z,99.90
2022-10-28T15:32:52.593Z,99.90
2022-10-28T15:35:28.035Z,99.90
2022-10-28T15:37:55.537Z,99.90
2022-10-28T15:40:30.965Z,99.90
2022-10-28T15:43:03.150Z,99.90
2022-10-28T15:45:32.424Z,99.90
2022-10-28T15:48:00.524Z,99.90
2022-10-28T15:50:32.337Z,99.90
2022-10-28T15:53:32.139Z,99.90
2022-10-28T15:56:15.411Z,99.90
2022-10-28T15:58:43.800Z,99.90
2022-10-28T16:01:28.787Z,99.90
2022-10-28T16:03:55.868Z,99.90
2022-10-28T16:06:27.537Z,99.90
2022-10-28T16:09:27.649Z,99.90
2022-10-28T16:11:57.523Z,99.90
2022-10-28T16:14:38.235Z,99.90
2022-10-28T16:17:16.992Z,99.90
2022-10-28T16:19:59.517Z,99.90
2022-10-28T16:22:28.264Z,99.90
2022-10-28T16:24:55.791Z,99.90
2022-10-28T16:27:29.966Z,99.90
2022-10-28T16:29:56.834Z,99.90
2022-10-28T16:32:28.678Z,99.90
2022-10-28T16:34:58.845Z,99.90
2022-10-28T16:37:29.324Z,99.90
2022-10-28T16:39:57.665Z,99.90
2022-10-28T16:42:24.787Z,99.90
2022-10-28T16:44:51.949Z,99.90
2022-10-28T16:47:20.638Z,99.90
2022-10-28T16:49:54.251Z,99.90
2022-10-28T16:52:26.920Z,99.90
2022-10-28T16:54:53.570Z,99.90
2022-10-28T16:57:21.164Z,99.90
2022-10-28T16:59:47.860Z,99.90
2022-10-28T17:02:33.944Z,99.90
2022-10-28T17:05:00.992Z,99.90
2022-10-28T17:07:28.947Z,99.90
2022-10-28T17:09:56.645Z,99.90
2022-10-28T17:12:24.999Z,99.90
2022-10-28T17:14:51.683Z,99.90
2022-10-28T17:17:18.406Z,99.90
2022-10-28T17:19:46.352Z,99.90
2022-10-28T17:22:13.529Z,99.90
2022-10-28T17:24:40.153Z,99.90
2022-10-28T17:27:07.562Z,99.90
2022-10-28T17:29:34.478Z,99.90
2022-10-28T17:32:02.300Z,99.90
2022-10-28T17:34:28.901Z,99.90
2022-10-28T17:36:55.504Z,99.90
2022-10-28T17:39:26.188Z,99.90
2022-10-28T17:41:53.326Z,99.90
2022-10-28T17:44:19.973Z,99.90
2022-10-28T17:46:49.210Z,99.90
2022-10-28T17:49:15.959Z,99.90
2022-10-28T17:51:42.785Z,99.90
2022-10-28T17:54:09.686Z,99.90
2022-10-28T17:56:37.023Z,99.90
2022-10-28T17:59:04.255Z,99.90
2022-10-28T18:06:26.373Z,99.90
2022-10-28T18:08:53.141Z,99.90
2022-10-28T18:11:20.409Z,99.90
2022-10-28T18:13:53.441Z,99.90
2022-10-28T18:16:24.108Z,99.90
2022-10-28T18:18:51.566Z,99.90
2022-10-28T18:21:18.217Z,99.90
2022-10-28T18:23:44.889Z,99.90
2022-10-28T18:26:13.548Z,99.90
2022-10-28T18:28:41.389Z,99.90
2022-10-28T18:31:11.868Z,99.90
2022-10-28T18:33:38.874Z,99.90
2022-10-28T18:36:11.601Z,99.90
2022-10-28T18:38:38.946Z,99.90
2022-10-28T18:41:12.531Z,99.90
2022-10-28T18:43:40.071Z,99.90
2022-10-28T18:46:07.077Z,99.90
2022-10-28T18:48:33.710Z,99.90
2022-10-28T18:51:02.119Z,99.90
2022-10-28T18:53:28.735Z,99.90
2022-10-28T18:56:00.760Z,99.90
2022-10-28T18:58:28.015Z,99.90
2022-10-28T19:01:03.207Z,99.90
2022-10-28T19:03:29.898Z,99.90
2022-10-28T19:06:05.197Z,99.90
2022-10-28T19:08:31.986Z,99.90
2022-10-28T19:10:59.807Z,99.90
2022-10-28T19:13:26.647Z,99.90
2022-10-28T19:15:53.753Z,99.90
2022-10-28T19:18:20.420Z,99.90
2022-10-28T19:20:47.129Z,99.90
2022-10-28T19:23:14.141Z,99.90
2022-10-28T19:25:40.746Z,99.90
2022-10-28T19:28:08.130Z,99.90
2022-10-28T19:30:35.057Z,99.90
2022-10-28T19:33:01.763Z,99.90
2022-10-28T19:35:28.588Z,99.90
2022-10-28T19:37:55.211Z,99.90
2022-10-28T19:40:21.788Z,99.90
2022-10-28T19:42:48.508Z,99.90
2022-10-28T19:45:15.347Z,99.90
2022-10-28T19:47:41.884Z,99.90
2022-10-28T19:50:09.002Z,99.90
2022-10-28T19:52:35.590Z,99.90
2022-10-28T19:55:02.242Z,99.90
2022-10-28T19:57:28.906Z,99.90
2022-10-28T19:59:55.545Z,99.90
2022-10-28T20:02:22.208Z,99.90
2022-10-28T20:04:53.824Z,99.90
2022-10-28T20:07:23.268Z,99.90
2022-10-28T20:09:50.694Z,99.90
2022-10-28T20:12:17.348Z,99.90
2022-10-28T20:14:43.924Z,99.90
2022-10-28T20:17:13.758Z,99.90
2022-10-28T20:19:40.435Z,99.90
2022-10-28T20:22:07.046Z,99.90
2022-10-28T20:24:33.622Z,99.90
2022-10-28T20:27:00.239Z,99.90
2022-10-28T20:29:26.819Z,99.90
2022-10-28T20:31:53.517Z,99.90
2022-10-28T20:34:20.123Z,99.90
2022-10-28T20:36:46.765Z,99.90
2022-10-28T20:39:15.913Z,99.90
2022-10-28T20:41:44.424Z,99.90
2022-10-28T20:44:11.158Z,99.90
2022-10-28T20:46:38.252Z,99.90
2022-10-28T20:49:08.652Z,99.90
2022-10-28T20:51:35.963Z,99.90
2022-10-28T20:54:02.973Z,99.90
2022-10-28T20:56:32.220Z,99.90
2022-10-28T20:58:59.279Z,99.90
2022-10-28T21:01:40.232Z,99.90
2022-10-28T21:04:10.532Z,99.90
2022-10-28T21:06:38.490Z,99.90
2022-10-28T21:09:06.684Z,99.90
2022-10-28T21:11:33.475Z,99.90
2022-10-28T21:14:01.531Z,99.90
2022-10-28T21:16:29.497Z,99.90
2022-10-28T21:18:56.479Z,99.90
2022-10-28T21:21:24.020Z,99.90
2022-10-28T21:23:50.713Z,99.90
2022-10-28T21:26:17.648Z,99.90
2022-10-28T21:28:44.993Z,99.90
2022-10-28T21:31:13.962Z,99.90
2022-10-28T21:33:41.783Z,99.90
2022-10-28T21:36:15.225Z,99.90
2022-10-28T21:38:42.148Z,99.90
2022-10-28T21:41:11.320Z,99.90
2022-10-28T21:43:40.377Z,99.90
2022-10-28T21:46:07.679Z,99.90
2022-10-28T21:48:35.850Z,99.90
2022-10-28T21:51:08.544Z,99.90
2022-10-28T21:53:39.402Z,99.90
2022-10-28T21:56:10.138Z,99.90
2022-10-28T21:58:40.837Z,99.90
2022-10-28T22:01:15.050Z,99.90
2022-10-28T22:03:41.880Z,99.90
2022-10-28T22:06:09.003Z,99.90
2022-10-28T22:08:36.187Z,99.90
2022-10-28T22:11:13.517Z,99.90
2022-10-28T22:13:40.153Z,99.90
2022-10-28T22:16:10.735Z,99.90
2022-10-28T22:18:37.784Z,99.90
2022-10-28T22:21:06.372Z,99.90
2022-10-28T22:23:33.331Z,99.90
2022-10-28T22:26:10.902Z,99.90
2022-10-28T22:28:38.315Z,99.90
2022-10-28T22:31:08.498Z,99.90
2022-10-28T22:33:35.584Z,99.90
2022-10-28T22:36:05.786Z,99.90
2022-10-28T22:38:32.986Z,99.90
2022-10-28T22:41:02.871Z,99.90
2022-10-28T22:43:29.528Z,99.90
2022-10-28T22:45:59.264Z,99.90
2022-10-28T22:48:26.607Z,99.90
2022-10-28T22:50:54.281Z,99.90
2022-10-28T22:53:21.377Z,99.90
2022-10-28T22:55:48.041Z,99.90
2022-10-28T22:58:16.666Z,99.90
2022-10-28T23:00:43.592Z,99.90
2022-10-28T23:03:10.309Z,99.90
2022-10-28T23:05:37.090Z,99.90
2022-10-28T23:08:04.032Z,99.90
2022-10-28T23:10:30.670Z,99.90
2022-10-28T23:12:58.460Z,99.90
2022-10-28T23:15:25.611Z,99.90
2022-10-28T23:17:53.094Z,99.90
2022-10-28T23:20:21.576Z,99.90
2022-10-28T23:22:48.809Z,99.90
2022-10-28T23:25:15.838Z,99.90
2022-10-28T23:27:44.028Z,99.90
2022-10-28T23:30:12.518Z,99.90
2022-10-28T23:32:39.965Z,99.90
2022-10-28T23:35:07.621Z,99.90
2022-10-28T23:37:34.166Z,99.90
2022-10-28T23:40:00.845Z,99.90
2022-10-28T23:42:27.545Z,99.90
2022-10-28T23:44:54.194Z,99.90
2022-10-28T23:47:20.971Z,99.90
2022-10-28T23:49:47.558Z,99.90
2022-10-28T23:52:14.182Z,99.90
2022-10-28T23:54:40.771Z,99.90
2022-10-28T23:57:08.276Z,99.90
2022-10-28T23:59:34.885Z,99.90
